createdAt,value
2019-03-05T00:01:18.644Z,64.30
2019-03-05T00:03:47.916Z,64.70
2019-03-05T00:06:17.196Z,62.80
2019-03-05T00:08:46.488Z,62.50
2019-03-05T00:11:15.771Z,59.80
2019-03-05T00:13:45.055Z,56.30
2019-03-05T00:16:14.651Z,56.10
2019-03-05T00:18:43.940Z,55.30
2019-03-05T00:21:13.226Z,54.50
2019-03-05T00:23:47.835Z,55.60
2019-03-05T00:26:29.838Z,56.30
2019-03-05T00:29:07.791Z,58.50
2019-03-05T00:31:42.667Z,60.00
2019-03-05T00:34:20.488Z,61.10
2019-03-05T00:36:58.615Z,62.00
2019-03-05T00:39:52.008Z,62.30
2019-03-05T00:42:59.377Z,63.00
2019-03-05T00:45:54.499Z,63.40
2019-03-05T00:48:29.889Z,64.10
2019-03-05T00:51:11.267Z,64.30
2019-03-05T00:54:04.953Z,64.70
2019-03-05T00:56:58.860Z,65.00
2019-03-05T00:59:43.186Z,65.00
2019-03-05T01:02:18.494Z,65.60
2019-03-05T01:05:12.887Z,65.60
2019-03-05T01:07:42.349Z,65.80
2019-03-05T01:10:13.057Z,67.20
2019-03-05T01:12:42.337Z,66.40
2019-03-05T01:15:11.940Z,67.00
2019-03-05T01:17:41.217Z,66.40
2019-03-05T01:20:11.951Z,66.00
2019-03-05T01:22:41.536Z,65.00
2019-03-05T01:25:28.111Z,64.60
2019-03-05T01:27:57.850Z,62.50
2019-03-05T01:30:31.686Z,62.40
2019-03-05T01:33:08.596Z,63.30
2019-03-05T01:35:39.779Z,63.60
2019-03-05T01:38:09.123Z,63.50
2019-03-05T01:40:39.812Z,62.10
2019-03-05T01:43:09.091Z,61.90
2019-03-05T01:45:38.384Z,61.00
2019-03-05T01:48:07.823Z,60.40
2019-03-05T01:50:37.427Z,60.10
2019-03-05T01:53:06.703Z,59.00
2019-03-05T01:55:35.995Z,58.50
2019-03-05T01:58:05.269Z,57.90
2019-03-05T02:00:35.448Z,58.10
2019-03-05T02:03:05.011Z,58.50
2019-03-05T02:05:34.663Z,58.00
2019-03-05T02:08:04.271Z,57.40
2019-03-05T02:10:33.568Z,57.30
2019-03-05T02:13:02.901Z,57.00
2019-03-05T02:15:32.212Z,56.50
2019-03-05T02:18:02.981Z,56.70
2019-03-05T02:20:32.260Z,56.40
2019-03-05T02:23:10.724Z,56.30
2019-03-05T02:25:46.039Z,56.30
2019-03-05T02:28:24.496Z,56.20
2019-03-05T02:31:27.076Z,55.20
2019-03-05T02:34:01.878Z,54.80
2019-03-05T02:36:40.037Z,55.10
2019-03-05T02:39:30.496Z,54.30
2019-03-05T02:42:05.464Z,55.00
2019-03-05T02:44:54.304Z,55.20
2019-03-05T02:47:49.491Z,54.90
2019-03-05T02:50:36.912Z,55.30
2019-03-05T02:53:30.453Z,55.10
2019-03-05T02:56:34.931Z,55.70
2019-03-05T02:59:03.615Z,56.20
2019-03-05T03:01:37.520Z,56.60
2019-03-05T03:04:15.015Z,57.40
2019-03-05T03:06:44.289Z,57.20
2019-03-05T03:09:24.976Z,58.10
2019-03-05T03:11:54.269Z,57.90
2019-03-05T03:14:23.562Z,58.10
2019-03-05T03:16:52.851Z,58.70
2019-03-05T03:19:22.123Z,57.80
2019-03-05T03:21:51.419Z,57.90
2019-03-05T03:24:20.711Z,58.20
2019-03-05T03:26:50.012Z,56.40
2019-03-05T03:29:19.600Z,57.10
2019-03-05T03:31:49.038Z,57.20
2019-03-05T03:34:18.605Z,56.90
2019-03-05T03:36:47.889Z,56.70
2019-03-05T03:39:17.201Z,56.10
2019-03-05T03:41:46.473Z,56.20
2019-03-05T03:44:16.003Z,56.20
2019-03-05T03:46:45.292Z,56.80
2019-03-05T03:49:14.925Z,57.50
2019-03-05T03:51:44.205Z,57.70
2019-03-05T03:54:13.500Z,56.90
2019-03-05T03:56:42.780Z,56.80
2019-03-05T03:59:12.152Z,56.70
2019-03-05T04:01:41.428Z,56.70
2019-03-05T04:04:10.723Z,56.60
2019-03-05T04:06:40.012Z,55.80
2019-03-05T04:09:10.751Z,56.00
2019-03-05T04:11:41.689Z,56.00
2019-03-05T04:14:10.979Z,56.60
2019-03-05T04:16:40.320Z,56.00
2019-03-05T04:19:11.264Z,56.60
2019-03-05T04:21:40.537Z,57.20
2019-03-05T04:24:10.065Z,57.00
2019-03-05T04:26:39.339Z,56.80
2019-03-05T04:29:08.956Z,57.60
2019-03-05T04:31:38.228Z,57.30
2019-03-05T04:34:07.537Z,57.90
2019-03-05T04:36:36.812Z,57.60
2019-03-05T04:39:09.178Z,57.90
2019-03-05T04:41:38.447Z,58.50
2019-03-05T04:44:08.027Z,57.80
2019-03-05T04:46:37.641Z,57.80
2019-03-05T04:49:17.587Z,57.90
2019-03-05T04:51:48.528Z,57.80
2019-03-05T04:54:17.803Z,57.50
2019-03-05T04:56:47.334Z,57.30
2019-03-05T04:59:16.625Z,57.40
2019-03-05T05:01:45.904Z,58.00
2019-03-05T05:04:15.199Z,57.80
2019-03-05T05:06:44.850Z,58.60
2019-03-05T05:09:14.127Z,58.30
2019-03-05T05:11:43.420Z,58.60
2019-03-05T05:14:13.051Z,59.40
2019-03-05T05:16:42.331Z,59.20
2019-03-05T05:19:11.622Z,59.10
2019-03-05T05:21:40.983Z,59.50
2019-03-05T05:24:10.267Z,58.60
2019-03-05T05:26:39.564Z,58.90
2019-03-05T05:29:08.863Z,58.90
2019-03-05T05:31:38.135Z,58.80
2019-03-05T05:34:07.428Z,59.40
2019-03-05T05:36:36.704Z,59.50
2019-03-05T05:39:09.166Z,59.90
2019-03-05T05:41:38.831Z,60.00
2019-03-05T05:44:08.170Z,59.60
2019-03-05T05:46:37.470Z,59.10
2019-03-05T05:49:06.759Z,58.80
2019-03-05T05:51:36.057Z,59.00
2019-03-05T05:54:05.331Z,59.20
2019-03-05T05:56:34.635Z,58.50
2019-03-05T05:59:03.908Z,56.90
2019-03-05T06:01:33.461Z,64.10
2019-03-05T06:04:02.735Z,63.70
2019-03-05T06:06:32.030Z,56.90
2019-03-05T06:09:01.321Z,60.10
2019-03-05T06:11:30.687Z,57.20
2019-03-05T06:13:59.955Z,52.00
2019-03-05T06:16:29.580Z,46.30
2019-03-05T06:18:58.863Z,48.80
2019-03-05T06:21:28.142Z,50.50
2019-03-05T06:23:57.586Z,52.10
2019-03-05T06:26:27.183Z,53.20
2019-03-05T06:28:56.467Z,54.20
2019-03-05T06:31:25.739Z,55.00
2019-03-05T06:33:55.039Z,55.30
2019-03-05T06:36:24.319Z,55.30
2019-03-05T06:38:53.624Z,55.80
2019-03-05T06:41:23.187Z,56.30
2019-03-05T06:43:52.791Z,57.40
2019-03-05T06:46:22.071Z,57.40
2019-03-05T06:48:51.367Z,57.40
2019-03-05T06:51:20.643Z,58.00
2019-03-05T06:53:49.936Z,57.50
2019-03-05T06:56:19.500Z,57.30
2019-03-05T06:58:48.795Z,57.30
2019-03-05T07:01:18.077Z,56.90
2019-03-05T07:03:47.372Z,55.10
2019-03-05T07:06:36.530Z,54.30
2019-03-05T07:09:20.787Z,54.70
2019-03-05T07:12:05.167Z,54.30
2019-03-05T07:15:00.362Z,53.80
2019-03-05T07:17:41.216Z,53.60
2019-03-05T07:20:33.595Z,54.00
2019-03-05T07:23:17.991Z,52.60
2019-03-05T07:25:47.296Z,52.60
2019-03-05T07:28:16.564Z,52.70
2019-03-05T07:30:45.865Z,51.30
2019-03-05T07:33:15.155Z,49.70
2019-03-05T07:35:44.503Z,50.50
2019-03-05T07:38:13.884Z,50.60
2019-03-05T07:40:43.171Z,50.70
2019-03-05T07:43:12.472Z,50.80
2019-03-05T07:45:42.075Z,50.20
2019-03-05T07:48:11.363Z,49.70
2019-03-05T07:50:40.875Z,50.10
2019-03-05T07:53:10.204Z,49.10
2019-03-05T07:55:39.784Z,48.70
2019-03-05T07:58:09.071Z,48.70
2019-03-05T08:00:38.359Z,48.70
2019-03-05T08:03:07.636Z,48.90
2019-03-05T08:05:37.399Z,47.60
2019-03-05T08:08:42.995Z,45.60
2019-03-05T08:11:12.276Z,45.00
2019-03-05T08:13:47.340Z,44.90
2019-03-05T08:16:24.278Z,43.60
2019-03-05T08:18:53.567Z,43.30
2019-03-05T08:21:22.871Z,43.20
2019-03-05T08:23:52.131Z,43.20
2019-03-05T08:26:21.432Z,42.70
2019-03-05T08:28:50.727Z,42.20
2019-03-05T08:31:20.008Z,42.20
2019-03-05T08:33:49.571Z,42.70
2019-03-05T08:36:19.183Z,41.90
2019-03-05T08:38:48.559Z,41.90
2019-03-05T08:41:17.832Z,42.80
2019-03-05T08:43:47.136Z,43.40
2019-03-05T08:46:16.483Z,44.10
2019-03-05T08:48:45.776Z,43.50
2019-03-05T08:51:15.061Z,40.40
2019-03-05T08:53:49.434Z,40.90
2019-03-05T08:56:15.320Z,41.70
2019-03-05T08:58:44.604Z,42.00
2019-03-05T09:01:13.901Z,41.50
2019-03-05T09:03:43.171Z,40.10
2019-03-05T09:06:12.632Z,39.90
2019-03-05T09:08:41.924Z,39.90
2019-03-05T09:11:11.399Z,39.20
2019-03-05T09:13:41.151Z,39.20
2019-03-05T09:16:10.671Z,39.80
2019-03-05T09:18:39.951Z,40.00
2019-03-05T09:21:09.239Z,40.10
2019-03-05T09:23:38.519Z,40.20
2019-03-05T09:26:07.956Z,40.40
2019-03-05T09:28:37.243Z,40.50
2019-03-05T09:31:06.610Z,41.50
2019-03-05T09:33:36.060Z,42.00
2019-03-05T09:36:06.803Z,42.50
2019-03-05T09:38:36.119Z,41.90
2019-03-05T09:41:05.471Z,42.60
2019-03-05T09:43:34.769Z,41.30
2019-03-05T09:46:04.324Z,41.90
2019-03-05T09:48:33.636Z,42.00
2019-03-05T09:51:02.913Z,41.20
2019-03-05T09:53:32.227Z,41.60
2019-03-05T09:56:01.508Z,41.20
2019-03-05T09:58:31.121Z,40.70
2019-03-05T10:01:00.416Z,41.00
2019-03-05T10:03:29.691Z,40.10
2019-03-05T10:05:59.052Z,40.10
2019-03-05T10:08:32.577Z,41.20
2019-03-05T10:10:59.317Z,41.20
2019-03-05T10:13:28.597Z,41.60
2019-03-05T10:15:57.998Z,42.50
2019-03-05T10:18:27.274Z,43.20
2019-03-05T10:20:56.564Z,43.70
2019-03-05T10:23:26.180Z,44.50
2019-03-05T10:25:55.739Z,45.10
2019-03-05T10:28:25.396Z,45.90
2019-03-05T10:30:54.745Z,49.00
2019-03-05T10:33:24.326Z,52.40
2019-03-05T10:35:54.133Z,55.30
2019-03-05T10:38:23.415Z,56.90
2019-03-05T10:40:55.432Z,59.40
2019-03-05T10:43:24.719Z,58.10
2019-03-05T10:45:54.163Z,60.50
2019-03-05T10:48:25.376Z,60.00
2019-03-05T10:50:54.987Z,58.20
2019-03-05T10:53:24.347Z,62.20
2019-03-05T10:55:53.632Z,63.50
2019-03-05T10:58:33.084Z,61.00
2019-03-05T11:00:55.650Z,62.20
2019-03-05T11:03:27.423Z,60.70
2019-03-05T11:05:56.713Z,59.40
2019-03-05T11:08:27.502Z,58.30
2019-03-05T11:10:57.632Z,57.80
2019-03-05T11:13:26.929Z,59.20
2019-03-05T11:16:04.251Z,57.50
2019-03-05T11:18:34.251Z,58.10
2019-03-05T11:21:04.103Z,58.80
2019-03-05T11:23:33.388Z,59.40
2019-03-05T11:26:02.655Z,58.70
2019-03-05T11:28:32.268Z,58.90
2019-03-05T11:31:01.535Z,57.90
2019-03-05T11:33:31.012Z,55.70
2019-03-05T11:36:00.338Z,56.80
2019-03-05T11:38:29.982Z,55.30
2019-03-05T11:40:59.694Z,55.60
2019-03-05T11:43:29.295Z,54.90
2019-03-05T11:45:58.912Z,53.90
2019-03-05T11:48:28.232Z,53.70
2019-03-05T11:50:57.511Z,53.90
2019-03-05T11:53:26.822Z,54.80
2019-03-05T11:55:56.096Z,54.30
2019-03-05T11:58:25.375Z,53.90
2019-03-05T12:00:58.992Z,52.30
2019-03-05T12:03:28.454Z,51.80
2019-03-05T12:05:57.834Z,52.60
2019-03-05T12:08:27.115Z,52.40
2019-03-05T12:10:56.396Z,53.10
2019-03-05T12:13:25.952Z,52.60
2019-03-05T12:15:55.295Z,51.50
2019-03-05T12:18:25.454Z,52.00
2019-03-05T12:20:54.847Z,51.50
2019-03-05T12:23:24.142Z,51.80
2019-03-05T12:25:53.426Z,50.00
2019-03-05T12:28:22.716Z,50.80
2019-03-05T12:30:51.995Z,51.10
2019-03-05T12:33:21.288Z,52.00
2019-03-05T12:35:50.586Z,51.00
2019-03-05T12:38:19.863Z,49.30
2019-03-05T12:40:49.165Z,49.30
2019-03-05T12:43:18.768Z,49.10
2019-03-05T12:45:48.376Z,49.10
2019-03-05T12:48:17.672Z,47.80
2019-03-05T12:50:47.006Z,48.00
2019-03-05T12:53:17.840Z,48.50
2019-03-05T12:55:47.144Z,48.70
2019-03-05T12:58:16.820Z,48.30
2019-03-05T13:00:46.123Z,48.70
2019-03-05T13:03:15.395Z,49.20
2019-03-05T13:05:44.692Z,47.80
2019-03-05T13:08:13.985Z,47.60
2019-03-05T13:10:45.104Z,46.20
2019-03-05T13:13:15.291Z,47.40
2019-03-05T13:15:45.013Z,45.40
2019-03-05T13:18:14.489Z,44.00
2019-03-05T13:20:43.836Z,44.80
2019-03-05T13:23:13.116Z,43.10
2019-03-05T13:25:42.419Z,43.40
2019-03-05T13:28:11.789Z,43.40
2019-03-05T13:30:41.125Z,42.40
2019-03-05T13:33:10.420Z,42.40
2019-03-05T13:35:39.704Z,42.20
2019-03-05T13:38:10.243Z,40.40
2019-03-05T13:40:40.602Z,38.40
2019-03-05T13:43:10.222Z,38.10
2019-03-05T13:45:43.788Z,37.50
2019-03-05T13:48:41.759Z,36.60
2019-03-05T13:51:47.204Z,36.40
2019-03-05T13:54:48.408Z,34.00
2019-03-05T13:57:43.661Z,32.60
2019-03-05T14:00:13.777Z,32.00
2019-03-05T14:03:03.799Z,30.80
2019-03-05T14:05:54.457Z,29.40
2019-03-05T14:08:35.794Z,30.80
2019-03-05T14:11:05.662Z,28.80
2019-03-05T14:13:35.011Z,29.30
2019-03-05T14:16:07.196Z,29.60
2019-03-05T14:18:36.481Z,30.40
2019-03-05T14:21:05.952Z,31.90
2019-03-05T14:23:35.216Z,34.90
2019-03-05T14:26:04.501Z,34.80
2019-03-05T14:28:33.796Z,34.60
2019-03-05T14:31:03.061Z,36.10
2019-03-05T14:33:32.449Z,34.10
2019-03-05T14:36:01.769Z,34.20
2019-03-05T14:38:31.208Z,31.00
2019-03-05T14:41:00.532Z,30.10
2019-03-05T14:43:29.787Z,29.60
2019-03-05T14:45:59.537Z,28.10
2019-03-05T14:48:29.283Z,28.90
2019-03-05T14:50:58.868Z,28.90
2019-03-05T14:53:28.207Z,28.90
2019-03-05T14:55:57.447Z,28.30
2019-03-05T14:58:26.753Z,27.20
2019-03-05T15:00:56.055Z,25.10
2019-03-05T15:03:25.360Z,24.40
2019-03-05T15:05:54.645Z,23.70
2019-03-05T15:08:23.955Z,21.60
2019-03-05T15:10:53.423Z,21.10
2019-03-05T15:13:22.790Z,20.70
2019-03-05T15:15:52.144Z,22.30
2019-03-05T15:18:21.487Z,23.40
2019-03-05T15:20:50.786Z,23.40
2019-03-05T15:23:20.079Z,24.50
2019-03-05T15:25:49.348Z,25.30
2019-03-05T15:28:19.004Z,24.90
2019-03-05T15:30:48.625Z,25.40
2019-03-05T15:33:18.113Z,25.00
2019-03-05T15:35:47.852Z,25.00
2019-03-05T15:38:17.214Z,25.50
2019-03-05T15:40:46.551Z,25.10
2019-03-05T15:43:15.832Z,24.50
2019-03-05T15:45:45.142Z,24.90
2019-03-05T15:48:14.474Z,24.70
2019-03-05T15:50:43.838Z,25.40
2019-03-05T15:53:13.133Z,25.50
2019-03-05T15:55:42.538Z,25.10
2019-03-05T15:58:12.147Z,25.30
2019-03-05T16:00:42.276Z,25.70
2019-03-05T16:03:11.679Z,26.00
2019-03-05T16:05:40.976Z,26.20
2019-03-05T16:08:10.263Z,26.40
2019-03-05T16:10:39.540Z,27.20
2019-03-05T16:13:08.835Z,27.00
2019-03-05T16:15:38.197Z,27.50
2019-03-05T16:18:07.492Z,27.60
2019-03-05T16:20:36.780Z,28.30
2019-03-05T16:23:06.055Z,28.50
2019-03-05T16:25:35.352Z,29.20
2019-03-05T16:28:06.471Z,29.50
2019-03-05T16:30:46.232Z,29.80
2019-03-05T16:33:20.085Z,30.10
2019-03-05T16:35:59.759Z,30.00
2019-03-05T16:38:51.189Z,31.00
2019-03-05T16:41:21.833Z,31.30
2019-03-05T16:43:53.103Z,32.10
2019-03-05T16:46:39.108Z,32.30
2019-03-05T16:49:15.623Z,32.70
2019-03-05T16:52:03.304Z,33.00
2019-03-05T16:54:37.287Z,33.40
2019-03-05T16:57:08.766Z,33.40
2019-03-05T16:59:42.892Z,33.60
2019-03-05T17:02:14.191Z,33.60
2019-03-05T17:04:47.860Z,34.10
2019-03-05T17:07:25.088Z,34.40
2019-03-05T17:10:08.240Z,35.10
2019-03-05T17:12:37.536Z,35.70
2019-03-05T17:15:09.156Z,36.40
2019-03-05T17:17:38.621Z,37.20
2019-03-05T17:20:11.033Z,37.60
2019-03-05T17:22:40.321Z,38.60
2019-03-05T17:25:12.908Z,39.70
2019-03-05T17:27:42.778Z,40.50
2019-03-05T17:30:14.944Z,41.10
2019-03-05T17:32:44.573Z,41.40
2019-03-05T17:35:15.104Z,41.80
2019-03-05T17:37:44.551Z,42.00
2019-03-05T17:40:15.175Z,42.30
2019-03-05T17:42:44.526Z,42.50
2019-03-05T17:45:20.004Z,43.30
2019-03-05T17:47:49.280Z,43.70
2019-03-05T17:50:18.575Z,45.00
2019-03-05T17:52:47.868Z,45.10
2019-03-05T17:55:25.277Z,45.70
2019-03-05T17:57:53.919Z,47.00
2019-03-05T18:00:28.347Z,47.90
2019-03-05T18:02:57.700Z,48.60
2019-03-05T18:05:27.131Z,48.90
2019-03-05T18:07:56.799Z,49.70
2019-03-05T18:10:26.224Z,50.30
2019-03-05T18:12:55.739Z,50.70
2019-03-05T18:15:25.051Z,50.80
2019-03-05T18:17:54.561Z,51.10
2019-03-05T18:20:24.300Z,51.10
2019-03-05T18:22:53.847Z,51.30
2019-03-05T18:25:23.195Z,52.20
2019-03-05T18:27:52.555Z,53.90
2019-03-05T18:30:32.047Z,54.30
2019-03-05T18:33:01.346Z,55.40
2019-03-05T18:35:30.676Z,55.70
2019-03-05T18:38:00.080Z,56.50
2019-03-05T18:40:29.672Z,56.50
2019-03-05T18:42:59.092Z,56.70
2019-03-05T18:45:30.211Z,57.00
2019-03-05T18:47:59.563Z,57.50
2019-03-05T18:50:29.226Z,58.00
2019-03-05T18:52:59.746Z,58.10
2019-03-05T18:55:29.310Z,58.30
2019-03-05T18:57:59.014Z,58.50
2019-03-05T19:00:29.728Z,58.40
2019-03-05T19:03:04.350Z,58.40
2019-03-05T19:05:33.640Z,58.30
2019-03-05T19:08:02.939Z,58.50
2019-03-05T19:10:32.331Z,58.20
2019-03-05T19:13:01.632Z,58.20
2019-03-05T19:15:30.916Z,58.00
2019-03-05T19:18:00.552Z,58.10
2019-03-05T19:20:31.502Z,58.30
2019-03-05T19:23:00.763Z,58.10
2019-03-05T19:25:38.511Z,57.90
2019-03-05T19:28:08.093Z,58.00
2019-03-05T19:30:48.520Z,58.00
2019-03-05T19:33:17.950Z,58.60
2019-03-05T19:35:47.266Z,58.60
2019-03-05T19:38:16.576Z,58.70
2019-03-05T19:40:47.158Z,58.50
2019-03-05T19:43:16.683Z,58.70
2019-03-05T19:45:46.000Z,58.70
2019-03-05T19:48:16.200Z,59.10
2019-03-05T19:50:45.942Z,60.20
2019-03-05T19:53:15.294Z,60.90
2019-03-05T19:55:44.719Z,61.10
2019-03-05T19:58:14.334Z,61.50
2019-03-05T20:00:52.995Z,62.10
2019-03-05T20:03:22.540Z,62.40
2019-03-05T20:05:52.195Z,62.30
2019-03-05T20:08:21.544Z,61.80
2019-03-05T20:10:50.991Z,61.20
2019-03-05T20:13:20.247Z,60.40
2019-03-05T20:15:49.539Z,60.40
2019-03-05T20:18:18.876Z,59.40
2019-03-05T20:20:48.264Z,59.30
2019-03-05T20:23:17.741Z,59.50
2019-03-05T20:25:47.068Z,59.20
2019-03-05T20:28:16.373Z,59.10
2019-03-05T20:30:45.887Z,59.10
2019-03-05T20:33:15.416Z,59.20
2019-03-05T20:35:44.894Z,58.70
2019-03-05T20:38:14.249Z,58.30
2019-03-05T20:40:43.614Z,58.20
2019-03-05T20:43:12.919Z,58.00
2019-03-05T20:45:45.156Z,58.90
2019-03-05T20:48:15.620Z,59.50
2019-03-05T20:50:44.947Z,60.30
2019-03-05T20:53:14.255Z,60.70
2019-03-05T20:55:43.540Z,61.00
2019-03-05T20:58:12.822Z,61.00
2019-03-05T21:00:42.455Z,60.90
2019-03-05T21:03:12.491Z,61.40
2019-03-05T21:05:44.089Z,63.80
2019-03-05T21:08:13.383Z,73.00
2019-03-05T21:10:42.715Z,75.70
2019-03-05T21:13:12.343Z,70.00
2019-03-05T21:15:41.912Z,62.80
2019-03-05T21:18:19.548Z,59.30
2019-03-05T21:20:49.424Z,60.30
2019-03-05T21:23:18.975Z,62.30
2019-03-05T21:25:48.281Z,63.30
2019-03-05T21:28:17.564Z,63.60
2019-03-05T21:30:46.859Z,63.40
2019-03-05T21:33:16.135Z,63.30
2019-03-05T21:35:45.432Z,63.40
2019-03-05T21:38:14.716Z,65.80
2019-03-05T21:40:44.340Z,67.10
2019-03-05T21:43:13.683Z,68.20
2019-03-05T21:45:46.134Z,68.00
2019-03-05T21:48:15.557Z,68.60
2019-03-05T21:50:44.947Z,68.30
2019-03-05T21:53:14.999Z,68.40
2019-03-05T21:55:44.304Z,69.10
2019-03-05T21:58:14.003Z,69.10
2019-03-05T22:00:43.455Z,69.60
2019-03-05T22:03:12.768Z,70.80
2019-03-05T22:05:42.229Z,71.20
2019-03-05T22:08:11.525Z,71.50
2019-03-05T22:10:40.816Z,72.20
2019-03-05T22:13:10.187Z,72.40
2019-03-05T22:15:39.479Z,72.50
2019-03-05T22:18:08.775Z,73.00
2019-03-05T22:20:38.156Z,73.70
2019-03-05T22:23:07.886Z,73.90
2019-03-05T22:25:37.491Z,73.70
2019-03-05T22:28:06.848Z,73.30
2019-03-05T22:30:37.572Z,73.70
2019-03-05T22:33:07.308Z,73.80
2019-03-05T22:35:37.043Z,74.00
2019-03-05T22:38:06.300Z,74.50
2019-03-05T22:40:35.853Z,73.40
2019-03-05T22:43:05.173Z,72.90
2019-03-05T22:45:34.794Z,73.00
2019-03-05T22:48:04.342Z,72.50
2019-03-05T22:50:33.629Z,72.80
2019-03-05T22:53:02.931Z,71.20
2019-03-05T22:55:32.216Z,70.70
2019-03-05T22:58:01.776Z,70.60
2019-03-05T23:00:54.064Z,70.00
2019-03-05T23:03:28.950Z,69.00
2019-03-05T23:05:59.591Z,68.40
2019-03-05T23:08:28.882Z,67.60
2019-03-05T23:10:58.448Z,68.20
2019-03-05T23:13:28.019Z,68.00
2019-03-05T23:15:57.688Z,67.60
2019-03-05T23:18:27.311Z,67.50
2019-03-05T23:20:56.599Z,67.80
2019-03-05T23:23:26.176Z,67.80
2019-03-05T23:25:55.479Z,68.80
2019-03-05T23:28:25.635Z,69.60
2019-03-05T23:30:54.918Z,71.00
2019-03-05T23:33:25.075Z,70.90
2019-03-05T23:35:54.375Z,71.10
2019-03-05T23:38:23.682Z,71.00
2019-03-05T23:40:53.269Z,71.50
2019-03-05T23:43:22.555Z,70.60
2019-03-05T23:45:51.855Z,70.30
2019-03-05T23:48:21.176Z,70.90
2019-03-05T23:50:50.466Z,72.60
2019-03-05T23:53:19.916Z,73.30
2019-03-05T23:55:49.300Z,74.00
2019-03-05T23:58:18.608Z,75.20
